Time;durP1;ratioP1;P1;durP2;ratioP2;P2;SDS_P1;SDS_P2;PMS_P1;PMS_P2;Temp;Humidity;BMP_temperature;BMP_pressure;BME280_temperature;BME280_humidity;BME280_pressure;Samples;Min_cycle;Max_cycle;Signal;HPM_P1;HPM_P2
2023/07/18 00:00:15;;;;;;;15.07;8.80;;;;;;;;;;5022250;28;20447;-80
2023/07/18 00:02:43;;;;;;;12.97;9.57;;;;;;;;;;5025681;28;20485;-81
2023/07/18 00:05:12;;;;;;;14.10;9.43;;;;;;;;;;5035178;28;20476;-80
2023/07/18 00:07:39;;;;;;;22.20;9.50;;;;;;;;;;5028384;28;20460;-82
2023/07/18 00:10:06;;;;;;;12.30;8.87;;;;;;;;;;5031638;28;20472;-80
2023/07/18 00:12:34;;;;;;;14.23;9.40;;;;;;;;;;5031365;28;20497;-80
2023/07/18 00:15:03;;;;;;;13.30;9.83;;;;;;;;;;5033506;28;20466;-82
2023/07/18 00:17:30;;;;;;;14.07;8.83;;;;;;;;;;5030281;28;20865;-81
2023/07/18 00:19:56;;;;;;;13.30;9.17;;;;;;;;;;5033155;28;20827;-79
2023/07/18 00:22:22;;;;;;;14.20;8.80;;;;;;;;;;5033311;28;20419;-79
2023/07/18 00:24:49;;;;;;;14.80;9.87;;;;;;;;;;5024364;28;20447;-79
2023/07/18 00:27:16;;;;;;;16.77;10.30;;;;;;;;;;5031440;28;20446;-83
2023/07/18 00:29:42;;;;;;;20.07;9.70;;;;;;;;;;5031575;28;20471;-80
2023/07/18 00:32:10;;;;;;;13.63;8.77;;;;;;;;;;5035221;28;20449;-79
2023/07/18 00:34:37;;;;;;;20.30;11.13;;;;;;;;;;5036477;28;20857;-80
2023/07/18 00:37:03;;;;;;;15.00;10.90;;;;;;;;;;5032169;28;20464;-79
2023/07/18 00:39:30;;;;;;;17.57;9.80;;;;;;;;;;5027677;28;20480;-79
2023/07/18 00:42:00;;;;;;;21.60;10.97;;;;;;;;;;5025650;28;20450;-80
2023/07/18 00:44:26;;;;;;;17.40;9.53;;;;;;;;;;5033181;28;20863;-82
2023/07/18 00:46:53;;;;;;;13.73;9.80;;;;;;;;;;5021690;28;20460;-82
2023/07/18 00:49:21;;;;;;;15.53;9.43;;;;;;;;;;5020661;28;20843;-82
2023/07/18 00:51:47;;;;;;;16.03;10.87;;;;;;;;;;5035447;28;20457;-81
2023/07/18 00:54:14;;;;;;;22.33;10.30;;;;;;;;;;5035063;28;20458;-80
2023/07/18 00:56:40;;;;;;;14.10;10.87;;;;;;;;;;5032576;28;20827;-81
2023/07/18 00:59:07;;;;;;;13.40;9.57;;;;;;;;;;5028165;28;20479;-81
2023/07/18 01:01:34;;;;;;;13.30;9.07;;;;;;;;;;5034295;28;20415;-81
2023/07/18 01:04:01;;;;;;;16.50;9.03;;;;;;;;;;5031069;28;20522;-81
2023/07/18 01:06:29;;;;;;;18.60;10.57;;;;;;;;;;5030633;28;20948;-80
2023/07/18 01:08:55;;;;;;;15.90;10.10;;;;;;;;;;5033470;28;20468;-81
2023/07/18 01:11:22;;;;;;;20.00;10.50;;;;;;;;;;5017142;28;20428;-79
2023/07/18 01:13:49;;;;;;;16.87;10.70;;;;;;;;;;5029786;28;20462;-79
2023/07/18 01:16:16;;;;;;;17.07;10.43;;;;;;;;;;5037488;28;20456;-79
2023/07/18 01:18:42;;;;;;;15.93;10.17;;;;;;;;;;5033610;28;20501;-79
2023/07/18 01:21:10;;;;;;;18.77;10.10;;;;;;;;;;5034959;28;20432;-81
2023/07/18 01:23:38;;;;;;;21.80;10.80;;;;;;;;;;5028355;28;20845;-83
2023/07/18 01:26:04;;;;;;;17.57;11.57;;;;;;;;;;5027949;28;20445;-81
2023/07/18 01:28:32;;;;;;;15.77;10.53;;;;;;;;;;5030694;28;20440;-81
2023/07/18 01:30:58;;;;;;;16.70;10.57;;;;;;;;;;5033679;28;20500;-81
2023/07/18 01:33:27;;;;;;;15.53;9.53;;;;;;;;;;5035961;28;20457;-81
2023/07/18 01:35:53;;;;;;;16.87;10.57;;;;;;;;;;5056028;28;20506;-82
2023/07/18 01:38:19;;;;;;;17.50;9.33;;;;;;;;;;5052598;28;20979;-79
2023/07/18 01:40:47;;;;;;;15.77;8.90;;;;;;;;;;5054816;28;20476;-82
2023/07/18 01:43:14;;;;;;;14.43;9.00;;;;;;;;;;5054386;28;20471;-82
2023/07/18 01:45:40;;;;;;;10.90;8.50;;;;;;;;;;5033245;28;20852;-80
2023/07/18 01:48:06;;;;;;;17.13;10.63;;;;;;;;;;5028073;28;20448;-81
2023/07/18 01:50:33;;;;;;;18.00;10.13;;;;;;;;;;5033578;28;20534;-82
2023/07/18 01:52:59;;;;;;;14.80;9.43;;;;;;;;;;5024220;28;20482;-82
2023/07/18 01:55:26;;;;;;;13.73;8.93;;;;;;;;;;5034636;28;20486;-80
2023/07/18 01:57:54;;;;;;;15.27;10.03;;;;;;;;;;5029273;28;20469;-80
2023/07/18 02:00:21;;;;;;;16.63;9.03;;;;;;;;;;5031847;28;20489;-82
2023/07/18 02:02:48;;;;;;;14.00;9.40;;;;;;;;;;5034451;28;20879;-80
2023/07/18 02:05:16;;;;;;;12.60;8.90;;;;;;;;;;5022980;28;21018;-82
2023/07/18 02:07:42;;;;;;;13.43;9.90;;;;;;;;;;5025576;28;20464;-81
2023/07/18 02:10:09;;;;;;;16.23;9.03;;;;;;;;;;5032579;28;20508;-83
2023/07/18 02:12:35;;;;;;;15.80;9.30;;;;;;;;;;5034442;28;20463;-80
2023/07/18 02:15:05;;;;;;;11.83;8.47;;;;;;;;;;5029951;28;20485;-81
2023/07/18 02:17:31;;;;;;;13.70;8.67;;;;;;;;;;5028129;28;20542;-81
2023/07/18 02:19:58;;;;;;;13.20;9.10;;;;;;;;;;5028872;28;20452;-81
2023/07/18 02:22:24;;;;;;;15.73;9.17;;;;;;;;;;5034413;28;20435;-80
2023/07/18 02:24:51;;;;;;;12.93;8.30;;;;;;;;;;5031039;28;20468;-82
2023/07/18 02:27:19;;;;;;;12.13;7.67;;;;;;;;;;5029821;28;20448;-79
2023/07/18 02:29:46;;;;;;;13.67;8.40;;;;;;;;;;5029382;28;20475;-80
2023/07/18 02:32:14;;;;;;;14.87;8.60;;;;;;;;;;5031175;28;20426;-81
2023/07/18 02:34:40;;;;;;;16.83;8.83;;;;;;;;;;5032724;28;20999;-80
2023/07/18 02:37:08;;;;;;;14.63;9.20;;;;;;;;;;5032232;28;20423;-80
2023/07/18 02:39:35;;;;;;;20.13;9.47;;;;;;;;;;5025342;28;20530;-81
2023/07/18 02:42:02;;;;;;;15.17;7.77;;;;;;;;;;5031789;28;20449;-80
2023/07/18 02:44:30;;;;;;;12.10;7.13;;;;;;;;;;5031524;28;21051;-82
2023/07/18 02:46:56;;;;;;;13.97;8.97;;;;;;;;;;5035434;28;20444;-81
2023/07/18 02:49:25;;;;;;;8.03;6.60;;;;;;;;;;5026202;28;20851;-82
2023/07/18 02:51:53;;;;;;;13.37;7.93;;;;;;;;;;5023231;28;20457;-83
2023/07/18 02:54:19;;;;;;;15.23;8.37;;;;;;;;;;5022785;28;20494;-79
2023/07/18 02:56:46;;;;;;;8.83;7.00;;;;;;;;;;5033735;28;20940;-80
2023/07/18 02:59:13;;;;;;;14.87;8.33;;;;;;;;;;5030396;28;20473;-81
2023/07/18 03:01:40;;;;;;;16.03;9.10;;;;;;;;;;5027851;28;20469;-81
2023/07/18 03:04:06;;;;;;;10.70;9.50;;;;;;;;;;5028752;28;20484;-81
2023/07/18 03:06:34;;;;;;;13.07;8.07;;;;;;;;;;5031003;28;20800;-83
2023/07/18 03:09:01;;;;;;;13.50;9.63;;;;;;;;;;5032488;28;20564;-79
2023/07/18 03:11:28;;;;;;;19.50;8.93;;;;;;;;;;5027691;28;20492;-81
2023/07/18 03:13:54;;;;;;;14.20;9.07;;;;;;;;;;5033656;28;20473;-82
2023/07/18 03:16:21;;;;;;;15.10;8.87;;;;;;;;;;5033208;28;20487;-81
2023/07/18 03:18:47;;;;;;;14.63;8.77;;;;;;;;;;5022247;28;20469;-82
2023/07/18 03:21:13;;;;;;;11.10;7.77;;;;;;;;;;5029793;28;20465;-81
2023/07/18 03:23:41;;;;;;;11.23;8.50;;;;;;;;;;5028582;28;20560;-81
2023/07/18 03:26:07;;;;;;;13.00;7.43;;;;;;;;;;5028170;28;20441;-82
2023/07/18 03:28:34;;;;;;;12.87;9.07;;;;;;;;;;5033793;28;20971;-81
2023/07/18 03:31:00;;;;;;;10.60;8.23;;;;;;;;;;5022399;28;20457;-82
2023/07/18 03:33:27;;;;;;;11.40;8.93;;;;;;;;;;5021782;28;20437;-81
2023/07/18 03:35:57;;;;;;;13.50;10.07;;;;;;;;;;5024535;28;20879;-81
2023/07/18 03:38:23;;;;;;;15.83;10.37;;;;;;;;;;5014863;28;20461;-81
2023/07/18 03:40:51;;;;;;;16.17;9.27;;;;;;;;;;5029973;28;20451;-81
2023/07/18 03:43:17;;;;;;;13.67;9.30;;;;;;;;;;5028914;28;20457;-81
2023/07/18 03:45:44;;;;;;;10.90;8.17;;;;;;;;;;5025381;28;20443;-82
2023/07/18 03:48:10;;;;;;;11.67;9.03;;;;;;;;;;5034333;28;20512;-82
2023/07/18 03:50:38;;;;;;;19.03;8.93;;;;;;;;;;5033398;28;20469;-84
2023/07/18 03:53:04;;;;;;;14.80;9.87;;;;;;;;;;5022239;28;20503;-81
2023/07/18 03:55:30;;;;;;;12.10;9.67;;;;;;;;;;5023559;28;20469;-81
2023/07/18 03:57:58;;;;;;;15.23;10.17;;;;;;;;;;5026019;28;20480;-80
2023/07/18 04:00:25;;;;;;;19.37;9.63;;;;;;;;;;5014941;28;20451;-82
2023/07/18 04:02:52;;;;;;;16.50;10.00;;;;;;;;;;5032098;28;20477;-81
2023/07/18 04:05:19;;;;;;;16.83;10.50;;;;;;;;;;5036492;28;20807;-81
2023/07/18 04:07:46;;;;;;;16.50;10.70;;;;;;;;;;5039042;28;20507;-81
2023/07/18 04:10:12;;;;;;;19.67;10.43;;;;;;;;;;5029437;28;20825;-81
2023/07/18 04:12:39;;;;;;;16.20;10.80;;;;;;;;;;5034626;28;20444;-81
2023/07/18 04:15:10;;;;;;;15.17;11.23;;;;;;;;;;5040192;28;20550;-81
2023/07/18 04:17:38;;;;;;;19.33;11.00;;;;;;;;;;5036440;28;20851;-83
2023/07/18 04:20:06;;;;;;;17.90;12.07;;;;;;;;;;5039314;28;20522;-81
2023/07/18 04:22:32;;;;;;;17.67;11.20;;;;;;;;;;5040012;28;20444;-81
2023/07/18 04:24:59;;;;;;;15.53;11.60;;;;;;;;;;5035444;28;21009;-82
2023/07/18 04:27:27;;;;;;;22.27;12.80;;;;;;;;;;5026110;28;20466;-81
2023/07/18 04:29:54;;;;;;;25.97;12.77;;;;;;;;;;5031686;28;20523;-80
2023/07/18 04:32:22;;;;;;;17.30;11.70;;;;;;;;;;5038144;28;20462;-81
2023/07/18 04:34:48;;;;;;;23.77;14.37;;;;;;;;;;5028730;28;20473;-83
2023/07/18 04:37:15;;;;;;;20.80;13.37;;;;;;;;;;5026959;28;20440;-81
2023/07/18 04:39:42;;;;;;;20.73;13.20;;;;;;;;;;5035017;28;20450;-82
2023/07/18 04:42:08;;;;;;;20.33;12.80;;;;;;;;;;5036960;28;20453;-81
2023/07/18 04:44:34;;;;;;;20.83;13.10;;;;;;;;;;5031819;28;20465;-81
2023/07/18 04:47:04;;;;;;;19.20;13.23;;;;;;;;;;5035837;28;20427;-83
2023/07/18 04:49:33;;;;;;;19.17;13.87;;;;;;;;;;5034873;28;20496;-81
2023/07/18 04:51:59;;;;;;;25.60;12.87;;;;;;;;;;5030631;28;20449;-81
2023/07/18 04:54:26;;;;;;;26.67;13.27;;;;;;;;;;5032538;28;20479;-81
2023/07/18 04:56:53;;;;;;;23.20;12.70;;;;;;;;;;5011688;28;20508;-82
2023/07/18 04:59:19;;;;;;;20.40;13.37;;;;;;;;;;5032977;28;20444;-82
2023/07/18 05:01:46;;;;;;;19.47;11.90;;;;;;;;;;5029629;28;20465;-82
2023/07/18 05:04:12;;;;;;;21.90;12.97;;;;;;;;;;5036348;28;20443;-82
2023/07/18 05:06:40;;;;;;;18.47;11.80;;;;;;;;;;5032300;28;20986;-82
2023/07/18 05:09:08;;;;;;;18.47;12.90;;;;;;;;;;5031334;28;20509;-80
2023/07/18 05:11:34;;;;;;;18.40;13.20;;;;;;;;;;5034015;28;20517;-81
2023/07/18 05:14:00;;;;;;;20.33;12.90;;;;;;;;;;5031960;28;20461;-82
2023/07/18 05:16:27;;;;;;;18.30;12.30;;;;;;;;;;5033228;28;20857;-80
2023/07/18 05:18:53;;;;;;;18.30;12.87;;;;;;;;;;5029802;28;20467;-81
2023/07/18 05:21:20;;;;;;;24.93;12.97;;;;;;;;;;5028953;28;20453;-82
2023/07/18 05:23:47;;;;;;;21.37;13.03;;;;;;;;;;5036760;28;20438;-81
2023/07/18 05:26:14;;;;;;;20.60;11.97;;;;;;;;;;5033952;28;20444;-82
2023/07/18 05:28:42;;;;;;;26.00;15.07;;;;;;;;;;5035971;28;20447;-82
2023/07/18 05:31:09;;;;;;;16.30;12.40;;;;;;;;;;5035647;28;21183;-81
2023/07/18 05:33:36;;;;;;;20.33;13.27;;;;;;;;;;5029628;28;20592;-80
2023/07/18 05:36:02;;;;;;;18.80;13.10;;;;;;;;;;5032344;28;20491;-80
2023/07/18 05:38:29;;;;;;;18.97;12.40;;;;;;;;;;5023805;28;20825;-81
2023/07/18 05:40:56;;;;;;;22.73;12.73;;;;;;;;;;5032404;28;20447;-82
2023/07/18 05:43:23;;;;;;;26.23;12.43;;;;;;;;;;5035630;28;20794;-82
2023/07/18 05:45:50;;;;;;;21.53;13.03;;;;;;;;;;5033710;28;20462;-82
2023/07/18 05:48:16;;;;;;;25.60;13.83;;;;;;;;;;5034153;28;20456;-83
2023/07/18 05:50:42;;;;;;;23.20;14.30;;;;;;;;;;5016903;28;20480;-81
2023/07/18 05:53:09;;;;;;;24.63;12.67;;;;;;;;;;5034547;28;20422;-81
2023/07/18 05:55:35;;;;;;;18.50;12.30;;;;;;;;;;5031591;28;20448;-81
2023/07/18 05:58:03;;;;;;;19.20;13.30;;;;;;;;;;5033040;28;20447;-81
2023/07/18 06:00:30;;;;;;;19.10;12.80;;;;;;;;;;5024604;28;20480;-81
2023/07/18 06:02:56;;;;;;;19.00;12.97;;;;;;;;;;5033449;28;20455;-80
2023/07/18 06:05:24;;;;;;;25.13;12.80;;;;;;;;;;5025967;28;20548;-82
2023/07/18 06:07:50;;;;;;;24.07;11.87;;;;;;;;;;5033879;28;20486;-82
2023/07/18 06:10:17;;;;;;;19.50;12.43;;;;;;;;;;5030081;28;20467;-82
2023/07/18 06:12:43;;;;;;;17.47;10.93;;;;;;;;;;5033109;28;20503;-82
2023/07/18 06:15:11;;;;;;;17.67;11.67;;;;;;;;;;5030596;28;20474;-81
2023/07/18 06:17:38;;;;;;;22.73;12.17;;;;;;;;;;5029820;28;20481;-82
2023/07/18 06:20:09;;;;;;;22.30;12.80;;;;;;;;;;5034983;28;20471;-80
2023/07/18 06:22:35;;;;;;;17.93;10.77;;;;;;;;;;5029456;28;20449;-79
2023/07/18 06:25:01;;;;;;;21.03;12.67;;;;;;;;;;5026821;28;20470;-82
2023/07/18 06:27:28;;;;;;;15.87;12.13;;;;;;;;;;5034142;28;20948;-79
2023/07/18 06:29:55;;;;;;;14.83;11.13;;;;;;;;;;5018696;28;20523;-81
2023/07/18 06:32:23;;;;;;;21.70;10.97;;;;;;;;;;5029482;28;20439;-80
2023/07/18 06:34:50;;;;;;;18.20;10.30;;;;;;;;;;5034504;28;20471;-82
2023/07/18 06:37:16;;;;;;;23.13;10.50;;;;;;;;;;5023334;28;20485;-80
2023/07/18 06:39:43;;;;;;;21.33;11.67;;;;;;;;;;5026985;28;20815;-80
2023/07/18 06:42:10;;;;;;;17.33;10.50;;;;;;;;;;5033275;28;20434;-79
2023/07/18 06:44:37;;;;;;;22.70;10.10;;;;;;;;;;5023944;28;20526;-79
2023/07/18 06:47:03;;;;;;;17.43;10.30;;;;;;;;;;5033062;28;20440;-80
2023/07/18 06:49:31;;;;;;;18.80;9.27;;;;;;;;;;5021196;28;20455;-79
2023/07/18 06:51:58;;;;;;;21.43;10.67;;;;;;;;;;5029336;28;20992;-80
2023/07/18 06:54:24;;;;;;;14.23;9.70;;;;;;;;;;5030773;28;20958;-80
2023/07/18 06:56:50;;;;;;;20.53;9.97;;;;;;;;;;5033566;28;20488;-81
2023/07/18 06:59:17;;;;;;;18.70;10.40;;;;;;;;;;5027442;28;20957;-80
2023/07/18 07:01:43;;;;;;;14.53;8.90;;;;;;;;;;5025643;28;20423;-80
2023/07/18 07:04:11;;;;;;;13.53;9.83;;;;;;;;;;5020397;28;20474;-80
2023/07/18 07:06:41;;;;;;;14.20;9.87;;;;;;;;;;5028823;28;20939;-81
2023/07/18 07:09:08;;;;;;;17.20;9.80;;;;;;;;;;5027232;28;20854;-79
2023/07/18 07:11:36;;;;;;;15.13;8.60;;;;;;;;;;5029026;28;20469;-80
2023/07/18 07:14:03;;;;;;;16.57;9.40;;;;;;;;;;5034247;28;20469;-80
2023/07/18 07:16:29;;;;;;;15.30;8.97;;;;;;;;;;5029439;28;20486;-79
2023/07/18 07:18:56;;;;;;;18.03;10.43;;;;;;;;;;5026545;28;20472;-80
2023/07/18 07:21:22;;;;;;;21.93;10.30;;;;;;;;;;5031073;28;20459;-79
2023/07/18 07:23:50;;;;;;;20.50;11.03;;;;;;;;;;5029447;28;20462;-80
2023/07/18 07:26:17;;;;;;;29.80;9.63;;;;;;;;;;5030564;28;20446;-80
2023/07/18 07:28:43;;;;;;;17.73;8.30;;;;;;;;;;5016217;28;20473;-79
2023/07/18 07:31:09;;;;;;;23.83;9.47;;;;;;;;;;5024308;28;20457;-81
2023/07/18 07:33:36;;;;;;;21.13;9.90;;;;;;;;;;5031961;28;20464;-79
2023/07/18 07:36:02;;;;;;;21.37;9.00;;;;;;;;;;5023730;28;20456;-80
2023/07/18 07:38:28;;;;;;;13.83;8.07;;;;;;;;;;5024210;28;20469;-80
2023/07/18 07:40:56;;;;;;;22.00;8.13;;;;;;;;;;5026337;28;20462;-79
2023/07/18 07:43:23;;;;;;;16.07;7.97;;;;;;;;;;5024179;28;20420;-80
2023/07/18 07:45:49;;;;;;;15.77;6.70;;;;;;;;;;5028861;28;20555;-80
2023/07/18 07:48:15;;;;;;;19.07;7.47;;;;;;;;;;5023618;28;20466;-79
2023/07/18 07:50:44;;;;;;;21.53;8.10;;;;;;;;;;5034354;28;20468;-80
2023/07/18 07:53:11;;;;;;;17.83;9.00;;;;;;;;;;5032480;28;20455;-80
2023/07/18 07:55:37;;;;;;;12.80;7.07;;;;;;;;;;5034443;28;20480;-80
2023/07/18 07:58:05;;;;;;;17.43;6.63;;;;;;;;;;5031599;28;20499;-79
2023/07/18 08:00:32;;;;;;;24.10;9.27;;;;;;;;;;5028069;28;20496;-79
2023/07/18 08:02:58;;;;;;;11.77;5.70;;;;;;;;;;5024943;28;20449;-80
2023/07/18 08:05:24;;;;;;;16.67;5.87;;;;;;;;;;5043112;28;20472;-79
2023/07/18 08:07:52;;;;;;;15.70;6.80;;;;;;;;;;5052826;28;20463;-79
2023/07/18 08:10:19;;;;;;;12.70;6.70;;;;;;;;;;5051936;28;20502;-79
2023/07/18 08:12:45;;;;;;;17.30;7.10;;;;;;;;;;5052292;28;20459;-83
2023/07/18 08:15:13;;;;;;;18.00;7.30;;;;;;;;;;5054728;28;20550;-80
2023/07/18 08:17:39;;;;;;;13.83;6.17;;;;;;;;;;5040716;28;20500;-79
2023/07/18 08:20:08;;;;;;;15.33;6.20;;;;;;;;;;5050325;28;20474;-79
2023/07/18 08:22:34;;;;;;;12.40;4.60;;;;;;;;;;5039437;28;20457;-79
2023/07/18 08:25:01;;;;;;;11.47;4.00;;;;;;;;;;5047664;28;20477;-79
2023/07/18 08:27:27;;;;;;;10.40;4.63;;;;;;;;;;5053198;28;20472;-79
2023/07/18 08:29:53;;;;;;;11.60;3.37;;;;;;;;;;5049731;28;20471;-79
2023/07/18 08:32:21;;;;;;;10.23;3.83;;;;;;;;;;5052944;28;20963;-79
2023/07/18 08:34:47;;;;;;;8.00;4.00;;;;;;;;;;5051753;28;20468;-79
2023/07/18 08:37:14;;;;;;;12.83;4.23;;;;;;;;;;5053266;28;20472;-79
2023/07/18 08:39:40;;;;;;;10.83;3.97;;;;;;;;;;5050615;28;20473;-81
2023/07/18 08:42:07;;;;;;;8.20;3.20;;;;;;;;;;5047834;28;20926;-80
2023/07/18 08:44:34;;;;;;;7.40;3.00;;;;;;;;;;5050308;28;20860;-80
2023/07/18 08:47:02;;;;;;;6.50;3.00;;;;;;;;;;5055918;28;20443;-80
2023/07/18 08:49:30;;;;;;;6.73;3.10;;;;;;;;;;5057012;28;20499;-80
2023/07/18 08:51:57;;;;;;;12.27;2.93;;;;;;;;;;5041719;28;20449;-82
2023/07/18 08:54:23;;;;;;;6.77;3.40;;;;;;;;;;5053855;28;20468;-80
2023/07/18 08:56:49;;;;;;;6.27;3.30;;;;;;;;;;5046625;28;20479;-79
2023/07/18 08:59:17;;;;;;;10.43;3.23;;;;;;;;;;5053609;28;20479;-79
2023/07/18 09:01:47;;;;;;;8.67;3.40;;;;;;;;;;5051054;28;21017;-80
2023/07/18 09:04:14;;;;;;;7.13;3.60;;;;;;;;;;5052128;28;20821;-79
2023/07/18 09:06:47;;;;;;;6.27;3.10;;;;;;;;;;5050715;28;20494;-80
2023/07/18 09:09:15;;;;;;;7.67;3.63;;;;;;;;;;5043047;28;20498;-79
2023/07/18 09:11:53;;;;;;;8.37;3.97;;;;;;;;;;5044442;28;20460;-80
2023/07/18 09:14:23;;;;;;;5.50;3.10;;;;;;;;;;5053263;28;20483;-79
2023/07/18 09:16:49;;;;;;;10.97;3.40;;;;;;;;;;5048268;28;20510;-80
2023/07/18 09:19:15;;;;;;;7.27;3.23;;;;;;;;;;5055738;28;20518;-80
2023/07/18 09:21:41;;;;;;;6.67;2.93;;;;;;;;;;5046656;28;20930;-80
2023/07/18 09:24:09;;;;;;;8.20;3.07;;;;;;;;;;5057102;28;20463;-79
2023/07/18 09:26:38;;;;;;;10.80;3.13;;;;;;;;;;5045837;28;20444;-80
2023/07/18 09:29:09;;;;;;;10.07;4.00;;;;;;;;;;5055726;28;20467;-81
2023/07/18 09:31:35;;;;;;;7.90;2.40;;;;;;;;;;5055252;28;20447;-80
2023/07/18 09:34:10;;;;;;;8.83;3.43;;;;;;;;;;5052222;28;20467;-79
2023/07/18 09:36:37;;;;;;;7.00;2.63;;;;;;;;;;5049829;28;20463;-79
2023/07/18 09:39:03;;;;;;;10.00;3.30;;;;;;;;;;5052920;28;20464;-79
2023/07/18 09:41:32;;;;;;;10.10;2.27;;;;;;;;;;5044791;28;20445;-79
2023/07/18 09:44:00;;;;;;;8.27;2.77;;;;;;;;;;5049205;28;20471;-79
2023/07/18 09:46:27;;;;;;;4.27;2.03;;;;;;;;;;5054754;28;20980;-79
2023/07/18 09:48:56;;;;;;;9.17;2.93;;;;;;;;;;5056094;28;20471;-80
2023/07/18 09:51:23;;;;;;;6.30;2.70;;;;;;;;;;5046930;28;20818;-79
2023/07/18 09:53:51;;;;;;;5.73;2.70;;;;;;;;;;5051780;28;20966;-79
2023/07/18 09:56:18;;;;;;;7.20;2.70;;;;;;;;;;5039428;28;20443;-80
2023/07/18 09:58:47;;;;;;;4.33;2.30;;;;;;;;;;5053050;28;20484;-79
2023/07/18 10:01:19;;;;;;;8.43;2.30;;;;;;;;;;5049012;28;20518;-80
2023/07/18 10:03:46;;;;;;;6.87;2.70;;;;;;;;;;5048024;28;20482;-79
2023/07/18 10:06:13;;;;;;;8.63;2.20;;;;;;;;;;5034168;28;20449;-79
2023/07/18 10:08:40;;;;;;;9.60;3.23;;;;;;;;;;5027944;28;21029;-81
2023/07/18 10:11:08;;;;;;;4.23;1.97;;;;;;;;;;5020663;28;20450;-79
2023/07/18 10:13:40;;;;;;;8.00;2.60;;;;;;;;;;5024583;28;20448;-78
2023/07/18 10:16:19;;;;;;;4.30;2.23;;;;;;;;;;5042051;28;20509;-80
2023/07/18 10:18:48;;;;;;;4.90;2.47;;;;;;;;;;5040676;28;20572;-80
2023/07/18 10:21:27;;;;;;;7.70;2.50;;;;;;;;;;5045304;28;20445;-80
2023/07/18 10:23:53;;;;;;;3.50;2.10;;;;;;;;;;5049976;28;20490;-79
2023/07/18 10:26:29;;;;;;;8.10;2.20;;;;;;;;;;5052109;28;20447;-78
2023/07/18 10:28:59;;;;;;;7.37;2.30;;;;;;;;;;5046338;28;20491;-78
2023/07/18 10:31:33;;;;;;;4.20;2.30;;;;;;;;;;5056012;28;20451;-78
2023/07/18 10:34:06;;;;;;;6.17;2.30;;;;;;;;;;5045727;28;20480;-79
2023/07/18 10:36:32;;;;;;;3.63;1.97;;;;;;;;;;5052612;28;20482;-79
2023/07/18 10:39:00;;;;;;;5.03;2.13;;;;;;;;;;5050843;28;20471;-79
2023/07/18 10:41:27;;;;;;;5.03;2.20;;;;;;;;;;5047806;28;20444;-80
2023/07/18 10:43:54;;;;;;;9.63;3.13;;;;;;;;;;5051048;28;20463;-78
2023/07/18 10:46:20;;;;;;;8.93;3.20;;;;;;;;;;5046718;28;21009;-78
2023/07/18 10:48:50;;;;;;;7.33;2.33;;;;;;;;;;5047519;28;20467;-79
2023/07/18 10:51:16;;;;;;;3.60;2.10;;;;;;;;;;5050081;28;20452;-80
2023/07/18 10:53:44;;;;;;;8.47;2.73;;;;;;;;;;5048367;28;20448;-79
2023/07/18 10:56:19;;;;;;;9.17;2.50;;;;;;;;;;5039221;28;20449;-79
2023/07/18 10:58:45;;;;;;;5.30;2.93;;;;;;;;;;5055537;28;20487;-80
2023/07/18 11:01:11;;;;;;;5.03;2.47;;;;;;;;;;5055930;28;20454;-80
2023/07/18 11:03:39;;;;;;;4.73;2.03;;;;;;;;;;5051183;28;20453;-79
2023/07/18 11:06:06;;;;;;;6.33;3.03;;;;;;;;;;5055034;28;20470;-79
2023/07/18 11:08:33;;;;;;;7.70;2.90;;;;;;;;;;5055137;28;20470;-79
2023/07/18 11:10:59;;;;;;;6.40;2.00;;;;;;;;;;5053911;28;20501;-79
2023/07/18 11:13:29;;;;;;;6.80;2.37;;;;;;;;;;5055414;28;20505;-78
2023/07/18 11:15:57;;;;;;;6.70;2.60;;;;;;;;;;5054603;28;20479;-79
2023/07/18 11:18:23;;;;;;;5.93;2.17;;;;;;;;;;5052673;28;20490;-79
2023/07/18 11:20:52;;;;;;;4.73;2.07;;;;;;;;;;5052464;28;20484;-78
2023/07/18 11:23:21;;;;;;;5.57;2.73;;;;;;;;;;5049512;28;20448;-79
2023/07/18 11:25:47;;;;;;;6.93;2.50;;;;;;;;;;5033942;28;21051;-79
2023/07/18 11:28:15;;;;;;;6.40;2.20;;;;;;;;;;5035439;28;21001;-79
2023/07/18 11:30:44;;;;;;;7.17;3.43;;;;;;;;;;5031484;28;20512;-78
2023/07/18 11:33:12;;;;;;;5.70;2.13;;;;;;;;;;5034551;28;20472;-79
2023/07/18 11:35:39;;;;;;;4.00;2.47;;;;;;;;;;5010496;28;20534;-78
2023/07/18 11:38:09;;;;;;;7.27;2.60;;;;;;;;;;5024678;28;20489;-78
2023/07/18 11:40:37;;;;;;;6.17;2.47;;;;;;;;;;5022594;28;20473;-78
2023/07/18 11:43:04;;;;;;;7.33;2.67;;;;;;;;;;5026242;28;20457;-81
2023/07/18 11:45:30;;;;;;;4.80;2.30;;;;;;;;;;5024979;28;20520;-78
2023/07/18 11:47:58;;;;;;;4.97;1.83;;;;;;;;;;5030738;28;20486;-78
2023/07/18 11:50:27;;;;;;;8.63;2.40;;;;;;;;;;5022713;28;20886;-78
2023/07/18 11:52:54;;;;;;;4.40;1.90;;;;;;;;;;5031974;28;20540;-78
2023/07/18 11:55:21;;;;;;;8.57;2.80;;;;;;;;;;5027131;28;20472;-78
2023/07/18 11:57:49;;;;;;;8.10;2.30;;;;;;;;;;5035797;28;20484;-79
2023/07/18 12:00:16;;;;;;;4.80;2.40;;;;;;;;;;5034835;28;20465;-80
2023/07/18 12:02:44;;;;;;;3.20;1.97;;;;;;;;;;5032570;28;20463;-78
2023/07/18 12:05:11;;;;;;;5.93;2.90;;;;;;;;;;5025751;28;20990;-78
2023/07/18 12:07:37;;;;;;;6.43;2.33;;;;;;;;;;5028071;28;20469;-78
2023/07/18 12:10:06;;;;;;;6.13;2.33;;;;;;;;;;5027540;28;20477;-78
2023/07/18 12:12:33;;;;;;;5.83;2.23;;;;;;;;;;5022203;28;20457;-79
2023/07/18 12:15:01;;;;;;;6.77;2.20;;;;;;;;;;5018972;28;20473;-79
2023/07/18 12:17:27;;;;;;;5.70;2.50;;;;;;;;;;5033527;28;20483;-79
2023/07/18 12:19:54;;;;;;;5.50;1.90;;;;;;;;;;5037611;28;20469;-78
2023/07/18 12:22:21;;;;;;;9.70;2.90;;;;;;;;;;5033231;28;20454;-77
2023/07/18 12:24:47;;;;;;;9.17;2.50;;;;;;;;;;5036947;28;20939;-79
2023/07/18 12:27:15;;;;;;;8.43;2.13;;;;;;;;;;5030725;28;20449;-80
2023/07/18 12:29:42;;;;;;;7.60;2.30;;;;;;;;;;5036206;28;20472;-80
2023/07/18 12:32:10;;;;;;;4.67;2.67;;;;;;;;;;5024049;28;20453;-80
2023/07/18 12:34:38;;;;;;;5.90;2.67;;;;;;;;;;5038034;28;20468;-80
2023/07/18 12:37:04;;;;;;;7.83;2.30;;;;;;;;;;5038956;28;20456;-80
2023/07/18 12:39:31;;;;;;;11.87;2.80;;;;;;;;;;5033932;28;20587;-81
2023/07/18 12:41:57;;;;;;;8.23;2.23;;;;;;;;;;5038619;28;20441;-80
2023/07/18 12:44:38;;;;;;;5.63;2.40;;;;;;;;;;5032894;28;20483;-80
2023/07/18 12:47:04;;;;;;;7.50;2.00;;;;;;;;;;5022974;28;20441;-79
2023/07/18 12:49:32;;;;;;;9.20;2.67;;;;;;;;;;5031923;28;20474;-79
2023/07/18 12:51:58;;;;;;;11.30;3.13;;;;;;;;;;5031521;28;20838;-79
2023/07/18 12:54:25;;;;;;;3.83;2.67;;;;;;;;;;5033655;28;20468;-81
2023/07/18 12:56:51;;;;;;;6.93;2.50;;;;;;;;;;5031201;28;20817;-78
2023/07/18 12:59:18;;;;;;;6.80;2.57;;;;;;;;;;5019252;28;20955;-77
2023/07/18 13:01:45;;;;;;;6.10;1.60;;;;;;;;;;5032342;28;20483;-78
2023/07/18 13:04:11;;;;;;;6.37;2.13;;;;;;;;;;5035272;28;20499;-78
2023/07/18 13:06:39;;;;;;;6.03;2.60;;;;;;;;;;5027647;28;20819;-78
2023/07/18 13:09:05;;;;;;;4.83;1.90;;;;;;;;;;5036767;28;20495;-78
2023/07/18 13:11:32;;;;;;;4.83;2.00;;;;;;;;;;5037092;28;20961;-78
2023/07/18 13:13:58;;;;;;;4.47;1.87;;;;;;;;;;5029020;28;20476;-78
2023/07/18 13:16:24;;;;;;;4.77;2.00;;;;;;;;;;5025860;28;20448;-80
2023/07/18 13:18:52;;;;;;;7.70;2.47;;;;;;;;;;5033488;28;20469;-79
2023/07/18 13:21:19;;;;;;;5.30;2.40;;;;;;;;;;5029458;28;20463;-77
2023/07/18 13:23:47;;;;;;;7.50;2.63;;;;;;;;;;5037298;28;20445;-79
2023/07/18 13:26:17;;;;;;;9.90;2.57;;;;;;;;;;5033309;28;20444;-78
2023/07/18 13:28:43;;;;;;;3.13;2.23;;;;;;;;;;5031138;28;20998;-78
2023/07/18 13:31:12;;;;;;;4.70;2.27;;;;;;;;;;5037223;28;20455;-80
2023/07/18 13:33:39;;;;;;;5.07;2.00;;;;;;;;;;5039032;28;20536;-80
2023/07/18 13:36:05;;;;;;;4.33;2.50;;;;;;;;;;5030642;28;20486;-79
2023/07/18 13:38:35;;;;;;;4.03;2.10;;;;;;;;;;5032214;28;20520;-79
2023/07/18 13:41:07;;;;;;;9.33;2.10;;;;;;;;;;5034889;28;20457;-78
2023/07/18 13:43:34;;;;;;;6.93;2.53;;;;;;;;;;5038327;28;20464;-77
2023/07/18 13:46:02;;;;;;;3.73;2.10;;;;;;;;;;5037175;28;20469;-77
2023/07/18 13:48:29;;;;;;;6.80;1.80;;;;;;;;;;5037618;28;20472;-78
2023/07/18 13:50:55;;;;;;;2.63;2.03;;;;;;;;;;5038159;28;20460;-78
2023/07/18 13:53:21;;;;;;;8.43;1.83;;;;;;;;;;5039173;28;20456;-81
2023/07/18 13:55:48;;;;;;;4.10;1.83;;;;;;;;;;5028964;28;20479;-78
2023/07/18 13:58:16;;;;;;;6.43;1.80;;;;;;;;;;5052210;28;20554;-79
2023/07/18 14:00:43;;;;;;;5.13;2.10;;;;;;;;;;5047095;28;20490;-78
2023/07/18 14:03:10;;;;;;;3.70;2.37;;;;;;;;;;5054370;28;20817;-78
2023/07/18 14:05:36;;;;;;;6.73;2.97;;;;;;;;;;5054032;28;20447;-78
2023/07/18 14:08:03;;;;;;;7.20;2.50;;;;;;;;;;5042497;28;20468;-78
2023/07/18 14:10:30;;;;;;;3.07;2.20;;;;;;;;;;5057461;28;20452;-79
2023/07/18 14:12:57;;;;;;;11.03;3.10;;;;;;;;;;5057829;28;20450;-78
2023/07/18 14:15:26;;;;;;;2.70;1.80;;;;;;;;;;5056239;28;20876;-79
2023/07/18 14:17:53;;;;;;;7.70;2.23;;;;;;;;;;5054154;28;20472;-79
2023/07/18 14:20:20;;;;;;;16.30;3.33;;;;;;;;;;5055696;28;20519;-79
2023/07/18 14:22:48;;;;;;;5.07;2.27;;;;;;;;;;5056835;28;20483;-78
2023/07/18 14:25:14;;;;;;;2.93;2.30;;;;;;;;;;5048372;28;20887;-78
2023/07/18 14:27:41;;;;;;;5.30;3.07;;;;;;;;;;5050275;28;20475;-78
2023/07/18 14:30:07;;;;;;;4.20;1.80;;;;;;;;;;5049011;28;20815;-78